CEB326 RPVE-RPLL
Flight info
| Callsign | CEB326 |
|---|---|
| Flight time | 0h 41m |
| Altitude | 23000 |
| Route | MINOR8A MINOR B473 LAIYA LAIYA7R |
| Aircraft | A320/M-SDE3FGHIRWY/LB1 |
Departure
| Time | 2026-04-25 11:15 |
|---|---|
| Airport | Godofredo P. Ramos Airport (RPVE) |
Arrival
| Time | 2026-04-25 11:56 |
|---|---|
| Airport | Ninoy Aquino International Airport (RPLL) |
| Time | Latitude | Longitude | Altitude | Speed | Heading |
|---|---|---|---|---|---|
| 2026-04-25 11:04 | 11.92622 | 121.96269 | 26 ft | 0 kts | 152° |
| 2026-04-25 11:08 | 11.92624 | 121.96268 | 26 ft | 2 kts | 152° |
| 2026-04-25 11:08 | 11.92639 | 121.96259 | 24 ft | 2 kts | 153° |
| 2026-04-25 11:08 | 11.92655 | 121.96252 | 27 ft | 3 kts | 172° |
| 2026-04-25 11:08 | 11.92665 | 121.96251 | 27 ft | 0 kts | 188° |
| 2026-04-25 11:10 | 11.92660 | 121.96247 | 27 ft | 5 kts | 217° |
| 2026-04-25 11:10 | 11.92663 | 121.96197 | 26 ft | 4 kts | 326° |
| 2026-04-25 11:10 | 11.92685 | 121.96183 | 26 ft | 7 kts | 327° |
| 2026-04-25 11:11 | 11.92771 | 121.96137 | 27 ft | 18 kts | 334° |
| 2026-04-25 11:11 | 11.92800 | 121.96088 | 26 ft | 12 kts | 256° |
| 2026-04-25 11:11 | 11.92720 | 121.95923 | 26 ft | 32 kts | 242° |
| 2026-04-25 11:11 | 11.92594 | 121.95682 | 30 ft | 42 kts | 243° |
| 2026-04-25 11:12 | 11.92465 | 121.95411 | 25 ft | 42 kts | 242° |
| 2026-04-25 11:12 | 11.92336 | 121.95158 | 26 ft | 21 kts | 242° |
| 2026-04-25 11:12 | 11.92306 | 121.95100 | 28 ft | 10 kts | 242° |
| 2026-04-25 11:12 | 11.92277 | 121.95060 | 26 ft | 10 kts | 212° |
| 2026-04-25 11:13 | 11.92250 | 121.95026 | 27 ft | 1 kts | 324° |
| 2026-04-25 11:13 | 11.92258 | 121.95029 | 27 ft | 0 kts | 15° |
| 2026-04-25 11:13 | 11.92266 | 121.95033 | 26 ft | 6 kts | 24° |
| 2026-04-25 11:13 | 11.92301 | 121.95088 | 29 ft | 0 kts | 64° |
| 2026-04-25 11:14 | 11.92328 | 121.95146 | 26 ft | 40 kts | 64° |
| 2026-04-25 11:14 | 11.92577 | 121.95644 | 30 ft | 113 kts | 63° |
| 2026-04-25 11:14 | 11.92992 | 121.96501 | 296 ft | 144 kts | 65° |
| 2026-04-25 11:15 | 11.93445 | 121.97433 | 962 ft | 147 kts | 64° |
| 2026-04-25 11:15 | 11.93906 | 121.98350 | 1678 ft | 145 kts | 64° |
| 2026-04-25 11:15 | 11.94380 | 121.99290 | 2113 ft | 157 kts | 64° |
| 2026-04-25 11:15 | 11.94916 | 122.00351 | 2391 ft | 179 kts | 64° |
| 2026-04-25 11:16 | 11.96337 | 122.02775 | 2974 ft | 222 kts | 44° |
| 2026-04-25 11:16 | 11.97705 | 122.03657 | 3398 ft | 246 kts | 30° |
| 2026-04-25 11:16 | 11.99282 | 122.04466 | 4004 ft | 259 kts | 29° |
| 2026-04-25 11:17 | 12.00917 | 122.05285 | 4799 ft | 264 kts | 29° |
| 2026-04-25 11:17 | 12.02581 | 122.06114 | 5597 ft | 269 kts | 29° |
| 2026-04-25 11:17 | 12.04273 | 122.06962 | 6393 ft | 273 kts | 28° |
| 2026-04-25 11:17 | 12.05991 | 122.07827 | 7137 ft | 277 kts | 28° |
| 2026-04-25 11:18 | 12.07737 | 122.08706 | 7894 ft | 281 kts | 28° |
| 2026-04-25 11:18 | 12.09506 | 122.09600 | 8651 ft | 286 kts | 28° |
| 2026-04-25 11:18 | 12.11304 | 122.10511 | 9398 ft | 290 kts | 27° |
| 2026-04-25 11:18 | 12.13116 | 122.11432 | 10108 ft | 294 kts | 27° |
| 2026-04-25 11:19 | 12.14985 | 122.12381 | 10565 ft | 309 kts | 27° |
| 2026-04-25 11:19 | 12.16982 | 122.13391 | 10745 ft | 332 kts | 27° |
| 2026-04-25 11:19 | 12.19115 | 122.14469 | 11009 ft | 350 kts | 27° |
| 2026-04-25 11:19 | 12.21320 | 122.15583 | 11544 ft | 357 kts | 27° |
| 2026-04-25 11:20 | 12.23563 | 122.16714 | 12142 ft | 361 kts | 27° |
| 2026-04-25 11:20 | 12.25834 | 122.17861 | 12733 ft | 366 kts | 27° |
| 2026-04-25 11:20 | 12.28131 | 122.19026 | 13321 ft | 371 kts | 27° |
| 2026-04-25 11:20 | 12.30429 | 122.20194 | 13885 ft | 375 kts | 27° |
| 2026-04-25 11:21 | 12.32830 | 122.21264 | 14413 ft | 379 kts | 17° |
| 2026-04-25 11:21 | 12.35430 | 122.21751 | 14949 ft | 382 kts | 3° |
| 2026-04-25 11:21 | 12.38086 | 122.21556 | 15499 ft | 385 kts | 348° |
| 2026-04-25 11:21 | 12.40626 | 122.20681 | 16041 ft | 387 kts | 334° |
| 2026-04-25 11:22 | 12.42926 | 122.19237 | 16581 ft | 389 kts | 326° |
| 2026-04-25 11:22 | 12.44412 | 122.18205 | 16944 ft | 391 kts | 326° |
| 2026-04-25 11:22 | 12.47431 | 122.16105 | 17651 ft | 394 kts | 326° |
| 2026-04-25 11:22 | 12.49702 | 122.14520 | 18172 ft | 396 kts | 326° |
| 2026-04-25 11:23 | 12.51996 | 122.12920 | 18611 ft | 399 kts | 326° |
| 2026-04-25 11:23 | 12.54269 | 122.11342 | 19028 ft | 401 kts | 326° |
| 2026-04-25 11:23 | 12.56598 | 122.09729 | 19448 ft | 404 kts | 326° |
| 2026-04-25 11:23 | 12.58932 | 122.08110 | 19856 ft | 407 kts | 326° |
| 2026-04-25 11:24 | 12.61283 | 122.06476 | 20283 ft | 410 kts | 325° |
| 2026-04-25 11:24 | 12.63647 | 122.04833 | 20686 ft | 413 kts | 325° |
| 2026-04-25 11:24 | 12.66031 | 122.03176 | 21089 ft | 415 kts | 325° |
| 2026-04-25 11:24 | 12.68432 | 122.01506 | 21487 ft | 418 kts | 325° |
| 2026-04-25 11:25 | 12.70844 | 121.99825 | 21875 ft | 421 kts | 325° |
| 2026-04-25 11:25 | 12.73270 | 121.98134 | 22306 ft | 423 kts | 324° |
| 2026-04-25 11:25 | 12.75709 | 121.96433 | 22700 ft | 425 kts | 324° |
| 2026-04-25 11:25 | 12.78161 | 121.94722 | 22908 ft | 427 kts | 324° |
| 2026-04-25 11:26 | 12.80594 | 121.93024 | 22948 ft | 429 kts | 324° |
| 2026-04-25 11:26 | 12.83065 | 121.91299 | 22944 ft | 430 kts | 324° |
| 2026-04-25 11:26 | 12.85540 | 121.89575 | 22942 ft | 430 kts | 324° |
| 2026-04-25 11:26 | 12.88026 | 121.87846 | 22946 ft | 430 kts | 324° |
| 2026-04-25 11:27 | 12.90503 | 121.86122 | 22947 ft | 430 kts | 324° |
| 2026-04-25 11:27 | 12.92976 | 121.84398 | 22946 ft | 430 kts | 324° |
| 2026-04-25 11:27 | 12.95452 | 121.82673 | 22947 ft | 430 kts | 324° |
| 2026-04-25 11:27 | 12.97093 | 121.81530 | 22947 ft | 430 kts | 324° |
| 2026-04-25 11:28 | 13.00404 | 121.79223 | 22947 ft | 430 kts | 324° |
| 2026-04-25 11:28 | 13.02884 | 121.77492 | 22942 ft | 430 kts | 324° |
| 2026-04-25 11:28 | 13.05358 | 121.75763 | 22942 ft | 430 kts | 324° |
| 2026-04-25 11:28 | 13.07825 | 121.74035 | 22945 ft | 430 kts | 324° |
| 2026-04-25 11:29 | 13.10298 | 121.72304 | 22946 ft | 430 kts | 324° |
| 2026-04-25 11:29 | 13.12768 | 121.70576 | 22945 ft | 430 kts | 324° |
| 2026-04-25 11:29 | 13.15238 | 121.68847 | 22941 ft | 430 kts | 324° |
| 2026-04-25 11:29 | 13.17710 | 121.67118 | 22940 ft | 430 kts | 324° |
| 2026-04-25 11:30 | 13.20181 | 121.65389 | 22938 ft | 430 kts | 324° |
| 2026-04-25 11:30 | 13.22648 | 121.63662 | 22942 ft | 430 kts | 324° |
| 2026-04-25 11:30 | 13.25119 | 121.61932 | 22942 ft | 430 kts | 324° |
| 2026-04-25 11:30 | 13.27590 | 121.60205 | 22944 ft | 430 kts | 324° |
| 2026-04-25 11:31 | 13.30063 | 121.58479 | 22942 ft | 430 kts | 324° |
| 2026-04-25 11:31 | 13.32534 | 121.56752 | 22935 ft | 430 kts | 324° |
| 2026-04-25 11:31 | 13.35002 | 121.55027 | 22941 ft | 430 kts | 324° |
| 2026-04-25 11:31 | 13.37474 | 121.53297 | 22936 ft | 430 kts | 324° |
| 2026-04-25 11:32 | 13.39942 | 121.51569 | 22936 ft | 430 kts | 324° |
| 2026-04-25 11:32 | 13.42412 | 121.49837 | 22938 ft | 430 kts | 324° |
| 2026-04-25 11:32 | 13.44848 | 121.48128 | 22937 ft | 430 kts | 324° |
| 2026-04-25 11:32 | 13.47350 | 121.46371 | 22937 ft | 430 kts | 324° |
| 2026-04-25 11:33 | 13.49817 | 121.44640 | 22939 ft | 430 kts | 324° |
| 2026-04-25 11:33 | 13.52287 | 121.42905 | 22938 ft | 430 kts | 324° |
| 2026-04-25 11:33 | 13.54721 | 121.41194 | 22940 ft | 430 kts | 324° |
| 2026-04-25 11:33 | 13.57188 | 121.39461 | 22938 ft | 430 kts | 324° |
| 2026-04-25 11:34 | 13.59640 | 121.37703 | 22943 ft | 430 kts | 323° |
| 2026-04-25 11:34 | 13.62065 | 121.35910 | 22936 ft | 429 kts | 322° |
| 2026-04-25 11:34 | 13.64475 | 121.34097 | 22940 ft | 429 kts | 322° |
| 2026-04-25 11:34 | 13.66879 | 121.32279 | 22940 ft | 429 kts | 322° |
| 2026-04-25 11:35 | 13.69285 | 121.30461 | 22937 ft | 429 kts | 322° |
| 2026-04-25 11:35 | 13.71692 | 121.28649 | 22941 ft | 429 kts | 322° |
| 2026-04-25 11:35 | 13.74106 | 121.26842 | 22941 ft | 429 kts | 322° |
| 2026-04-25 11:35 | 13.76526 | 121.25042 | 22945 ft | 429 kts | 322° |
| 2026-04-25 11:36 | 13.78944 | 121.23245 | 22945 ft | 429 kts | 322° |
| 2026-04-25 11:36 | 13.81362 | 121.21448 | 22943 ft | 429 kts | 322° |
| 2026-04-25 11:36 | 13.83778 | 121.19650 | 22942 ft | 429 kts | 322° |
| 2026-04-25 11:36 | 13.86192 | 121.17848 | 22946 ft | 429 kts | 322° |
| 2026-04-25 11:37 | 13.88603 | 121.16045 | 22941 ft | 428 kts | 322° |
| 2026-04-25 11:37 | 13.91014 | 121.14241 | 22939 ft | 428 kts | 322° |
| 2026-04-25 11:37 | 13.93423 | 121.12440 | 22937 ft | 428 kts | 322° |
| 2026-04-25 11:37 | 13.95833 | 121.10639 | 22944 ft | 428 kts | 322° |
| 2026-04-25 11:38 | 13.98244 | 121.08839 | 22942 ft | 428 kts | 322° |
| 2026-04-25 11:38 | 14.00656 | 121.07038 | 22941 ft | 428 kts | 322° |
| 2026-04-25 11:38 | 14.03060 | 121.05239 | 22940 ft | 428 kts | 322° |
| 2026-04-25 11:38 | 14.05467 | 121.03437 | 22937 ft | 428 kts | 322° |
| 2026-04-25 11:39 | 14.07872 | 121.01634 | 22932 ft | 427 kts | 322° |
| 2026-04-25 11:39 | 14.10270 | 120.99837 | 22837 ft | 423 kts | 322° |
| 2026-04-25 11:39 | 14.12616 | 120.98082 | 22576 ft | 411 kts | 322° |
| 2026-04-25 11:39 | 14.14900 | 120.96377 | 22328 ft | 400 kts | 321° |
| 2026-04-25 11:40 | 14.17134 | 120.94729 | 22073 ft | 391 kts | 324° |
| 2026-04-25 11:40 | 14.19460 | 120.93331 | 21835 ft | 382 kts | 328° |
| 2026-04-25 11:40 | 14.21729 | 120.91996 | 21708 ft | 370 kts | 327° |
| 2026-04-25 11:40 | 14.23884 | 120.90686 | 21585 ft | 357 kts | 322° |
| 2026-04-25 11:41 | 14.25611 | 120.88927 | 20854 ft | 348 kts | 298° |
| 2026-04-25 11:41 | 14.26365 | 120.86603 | 20068 ft | 341 kts | 271° |
| 2026-04-25 11:41 | 14.25977 | 120.84255 | 19549 ft | 329 kts | 247° |
| 2026-04-25 11:41 | 14.24927 | 120.82171 | 19115 ft | 329 kts | 237° |
| 2026-04-25 11:42 | 14.23624 | 120.80224 | 18657 ft | 331 kts | 234° |
| 2026-04-25 11:42 | 14.22257 | 120.78298 | 18174 ft | 334 kts | 234° |
| 2026-04-25 11:42 | 14.20920 | 120.76326 | 17656 ft | 336 kts | 236° |
| 2026-04-25 11:42 | 14.19641 | 120.74302 | 17185 ft | 337 kts | 238° |
| 2026-04-25 11:43 | 14.18416 | 120.72247 | 16725 ft | 337 kts | 239° |
| 2026-04-25 11:43 | 14.17221 | 120.70162 | 16260 ft | 338 kts | 240° |
| 2026-04-25 11:43 | 14.16041 | 120.68064 | 15795 ft | 339 kts | 240° |
| 2026-04-25 11:43 | 14.14861 | 120.65951 | 15327 ft | 340 kts | 240° |
| 2026-04-25 11:44 | 14.13678 | 120.63834 | 14856 ft | 342 kts | 240° |
| 2026-04-25 11:44 | 14.12483 | 120.61705 | 14391 ft | 343 kts | 240° |
| 2026-04-25 11:44 | 14.11420 | 120.59512 | 13908 ft | 343 kts | 254° |
| 2026-04-25 11:44 | 14.11288 | 120.57078 | 13400 ft | 343 kts | 282° |
| 2026-04-25 11:45 | 14.12250 | 120.54899 | 12945 ft | 341 kts | 309° |
| 2026-04-25 11:45 | 14.14073 | 120.53369 | 12501 ft | 340 kts | 331° |
| 2026-04-25 11:45 | 14.16230 | 120.52380 | 12012 ft | 340 kts | 339° |
| 2026-04-25 11:45 | 14.18458 | 120.51560 | 11501 ft | 340 kts | 341° |
| 2026-04-25 11:46 | 14.20783 | 120.51225 | 11019 ft | 340 kts | 6° |
| 2026-04-25 11:46 | 14.23014 | 120.52046 | 10570 ft | 338 kts | 34° |
| 2026-04-25 11:46 | 14.24696 | 120.53717 | 10132 ft | 335 kts | 52° |
| 2026-04-25 11:46 | 14.25901 | 120.55681 | 9692 ft | 322 kts | 61° |
| 2026-04-25 11:47 | 14.26863 | 120.57719 | 9223 ft | 310 kts | 65° |
| 2026-04-25 11:47 | 14.27739 | 120.59702 | 8812 ft | 297 kts | 65° |
| 2026-04-25 11:47 | 14.28607 | 120.61587 | 8417 ft | 285 kts | 63° |
| 2026-04-25 11:47 | 14.29489 | 120.63376 | 8035 ft | 274 kts | 62° |
| 2026-04-25 11:48 | 14.30088 | 120.64531 | 7776 ft | 267 kts | 61° |
| 2026-04-25 11:48 | 14.30675 | 120.65630 | 7543 ft | 261 kts | 60° |
| 2026-04-25 11:48 | 14.32113 | 120.68248 | 6965 ft | 245 kts | 60° |
| 2026-04-25 11:48 | 14.32950 | 120.69751 | 6650 ft | 241 kts | 59° |
| 2026-04-25 11:49 | 14.33786 | 120.71251 | 6316 ft | 240 kts | 60° |
| 2026-04-25 11:49 | 14.34607 | 120.72728 | 5923 ft | 236 kts | 60° |
| 2026-04-25 11:49 | 14.35421 | 120.74206 | 5429 ft | 236 kts | 60° |
| 2026-04-25 11:49 | 14.36229 | 120.75660 | 5093 ft | 229 kts | 60° |
| 2026-04-25 11:50 | 14.37011 | 120.77063 | 4810 ft | 222 kts | 60° |
| 2026-04-25 11:50 | 14.37769 | 120.78423 | 4532 ft | 216 kts | 61° |
| 2026-04-25 11:50 | 14.38507 | 120.79746 | 4252 ft | 209 kts | 61° |
| 2026-04-25 11:50 | 14.39213 | 120.81014 | 3992 ft | 205 kts | 62° |
| 2026-04-25 11:51 | 14.39927 | 120.82296 | 3729 ft | 202 kts | 63° |
| 2026-04-25 11:51 | 14.40616 | 120.83532 | 3477 ft | 201 kts | 62° |
| 2026-04-25 11:51 | 14.41310 | 120.84779 | 3240 ft | 201 kts | 63° |
| 2026-04-25 11:51 | 14.42006 | 120.86029 | 2972 ft | 201 kts | 62° |
| 2026-04-25 11:52 | 14.42702 | 120.87278 | 2710 ft | 200 kts | 63° |
| 2026-04-25 11:52 | 14.43389 | 120.88511 | 2465 ft | 195 kts | 63° |
| 2026-04-25 11:52 | 14.44049 | 120.89697 | 2239 ft | 183 kts | 63° |
| 2026-04-25 11:52 | 14.44655 | 120.90784 | 1996 ft | 167 kts | 64° |
| 2026-04-25 11:53 | 14.45208 | 120.91778 | 1805 ft | 154 kts | 63° |
| 2026-04-25 11:53 | 14.45722 | 120.92701 | 1616 ft | 143 kts | 63° |
| 2026-04-25 11:53 | 14.46206 | 120.93572 | 1420 ft | 138 kts | 63° |
| 2026-04-25 11:53 | 14.46679 | 120.94424 | 1253 ft | 137 kts | 62° |
| 2026-04-25 11:54 | 14.47154 | 120.95279 | 1077 ft | 137 kts | 65° |
| 2026-04-25 11:54 | 14.47628 | 120.96132 | 915 ft | 137 kts | 64° |
| 2026-04-25 11:54 | 14.48575 | 120.97835 | 564 ft | 138 kts | 64° |
| 2026-04-25 11:55 | 14.49056 | 120.98704 | 405 ft | 139 kts | 64° |
| 2026-04-25 11:55 | 14.49542 | 120.99565 | 249 ft | 140 kts | 63° |
| 2026-04-25 11:55 | 14.50021 | 121.00423 | 69 ft | 133 kts | 64° |
| 2026-04-25 11:55 | 14.50390 | 121.01103 | 66 ft | 70 kts | 60° |
| 2026-04-25 11:56 | 14.50525 | 121.01347 | 69 ft | 30 kts | 61° |
| 2026-04-25 11:56 | 14.50629 | 121.01535 | 63 ft | 30 kts | 59° |
| 2026-04-25 11:56 | 14.50752 | 121.01710 | 67 ft | 30 kts | 41° |
| 2026-04-25 11:56 | 14.50866 | 121.01798 | 60 ft | 0 kts | 34° |
| 2026-04-25 11:57 | 14.50871 | 121.01795 | 66 ft | 3 kts | 345° |
| 2026-04-25 11:57 | 14.50889 | 121.01784 | 62 ft | 6 kts | 323° |
| 2026-04-25 11:58 | 14.50960 | 121.01714 | 66 ft | 15 kts | 315° |
| 2026-04-25 11:58 | 14.51032 | 121.01639 | 64 ft | 14 kts | 315° |
| 2026-04-25 11:58 | 14.51100 | 121.01568 | 61 ft | 13 kts | 314° |
| 2026-04-25 11:58 | 14.51162 | 121.01502 | 63 ft | 12 kts | 314° |
| 2026-04-25 11:59 | 14.51220 | 121.01440 | 64 ft | 12 kts | 317° |
| 2026-04-25 11:59 | 14.51286 | 121.01429 | 66 ft | 10 kts | 32° |
| 2026-04-25 11:59 | 14.51318 | 121.01459 | 61 ft | 9 kts | 44° |
| 2026-04-25 12:00 | 14.51389 | 121.01551 | 65 ft | 8 kts | 50° |
| 2026-04-25 12:00 | 14.51432 | 121.01589 | 61 ft | 8 kts | 23° |
| 2026-04-25 12:00 | 14.51482 | 121.01564 | 64 ft | 6 kts | 316° |
| 2026-04-25 12:01 | 14.51601 | 121.01441 | 62 ft | 0 kts | 314° |
| 2026-04-25 12:02 | 14.51617 | 121.01423 | 66 ft | 9 kts | 314° |
| 2026-04-25 12:02 | 14.51655 | 121.01414 | 62 ft | 5 kts | 50° |
| 2026-04-25 12:03 | 14.51679 | 121.01438 | 61 ft | 4 kts | 44° |
| 2026-04-25 12:03 | 14.51698 | 121.01457 | 64 ft | 5 kts | 44° |
| 2026-04-25 12:03 | 14.51712 | 121.01471 | 64 ft | 0 kts | 45° |